Terminal Aerodrome Forecast
Issued by NWS Charleston, WV

Current Version | Previous Version | Graphics & Text | Print | Product List | Glossary On
Versions: 1 2 3 4 5 6 7 8 9 10 11 12 13 14 15 16 17 18 19 20 21 22 23
000
FTUS41 KRLX 261120
TAFEKN
TAF
KEKN 261120Z 2612/2712 21003KT 1SM BR SCT002
     FM261300 00000KT P6SM BKN250
     FM262100 29004KT P6SM BKN050
     FM262200 VRB03KT P6SM -SHRA VCTS BKN045CB
     FM262300 00000KT P6SM BKN045=

USA.gov is the U.S. government's official web portal to all federal, state and local government web resources and services.